Terminal Aerodrome Forecast
Issued by NWS

Home | Current Version | Previous Version | Text Only | Print | Product List | Glossary On
Versions: 1 2 3 4 5 6 7 8 9 10 11 12 13 14 15 16 17 18 19 20
000
FTUS43 KGRB 242331
TAFCWA
TAF
KCWA 242331Z 2500/2524 20010G15KT P6SM SCT060
     FM250200 19006KT P6SM SCT060 BKN250
     FM250600 21006KT P6SM VCTS SCT050CB BKN090
     FM251600 22012G18KT P6SM VCTS BKN035CB=

USA.gov is the U.S. government's official web portal to all federal, state and local government web resources and services.